Time;durP1;ratioP1;P1;durP2;ratioP2;P2;SDS_P1;SDS_P2;PMS_P1;PMS_P2;Temp;Humidity;BMP_temperature;BMP_pressure;BME280_temperature;BME280_humidity;BME280_pressure;Samples;Min_cycle;Max_cycle;Signal;HPM_P1;HPM_P2
2023/10/16 00:01:28;;;;;;;2.63;0.70;;;23.10;40.70;;;;;;5073045;28;20212;-72
2023/10/16 00:03:56;;;;;;;3.93;0.60;;;22.90;39.10;;;;;;5072557;28;20584;-73
2023/10/16 00:06:23;;;;;;;4.73;0.80;;;22.70;38.90;;;;;;5072805;28;20191;-78
2023/10/16 00:08:55;;;;;;;1.80;0.77;;;22.50;39.40;;;;;;5072132;28;20194;-70
2023/10/16 00:11:23;;;;;;;1.53;0.90;;;22.40;39.70;;;;;;5072774;28;20182;-75
2023/10/16 00:13:52;;;;;;;6.63;0.70;;;22.70;39.70;;;;;;5072312;28;20175;-73
2023/10/16 00:16:21;;;;;;;1.17;0.67;;;22.60;39.10;;;;;;5072393;28;20221;-76
2023/10/16 00:18:50;;;;;;;0.90;0.63;;;23.00;39.20;;;;;;5073292;28;20175;-71
2023/10/16 00:21:18;;;;;;;0.83;0.60;;;23.20;38.70;;;;;;5072421;28;20559;-74
2023/10/16 00:23:46;;;;;;;4.03;0.77;;;23.50;38.00;;;;;;5072249;28;20179;-71
2023/10/16 00:26:21;;;;;;;2.40;0.60;;;23.40;37.90;;;;;;5072397;28;20179;-71
2023/10/16 00:29:01;;;;;;;0.83;0.70;;;23.60;38.20;;;;;;5072630;28;20210;-71
2023/10/16 00:31:32;;;;;;;1.97;0.60;;;24.00;37.30;;;;;;5054412;28;20295;-71
2023/10/16 00:34:00;;;;;;;1.40;0.60;;;24.30;36.50;;;;;;5072594;28;20638;-72
2023/10/16 00:36:28;;;;;;;1.97;0.70;;;24.50;36.50;;;;;;5072472;28;20254;-76
2023/10/16 00:38:55;;;;;;;6.10;0.53;;;24.70;36.20;;;;;;5072162;28;20252;-70
2023/10/16 00:41:28;;;;;;;1.20;0.50;;;24.80;35.70;;;;;;5070886;28;20707;-70
2023/10/16 00:43:57;;;;;;;0.90;0.60;;;24.80;35.90;;;;;;5073768;28;20187;-75
2023/10/16 00:46:32;;;;;;;1.00;0.57;;;25.00;35.70;;;;;;5072217;28;20222;-74
2023/10/16 00:49:00;;;;;;;2.27;0.83;;;25.20;34.70;;;;;;5076181;28;20226;-69
2023/10/16 00:51:28;;;;;;;0.80;0.60;;;24.90;35.60;;;;;;5076053;28;20183;-70
2023/10/16 00:53:55;;;;;;;2.03;0.60;;;25.00;35.20;;;;;;5070282;28;20183;-74
2023/10/16 00:56:27;;;;;;;0.80;0.57;;;25.10;35.30;;;;;;5075383;28;20185;-73
2023/10/16 00:58:58;;;;;;;4.13;0.63;;;25.20;35.20;;;;;;5071318;28;20676;-72
2023/10/16 01:01:26;;;;;;;0.90;0.60;;;25.10;35.20;;;;;;5067757;28;20182;-68
2023/10/16 01:03:57;;;;;;;1.37;1.00;;;25.40;34.40;;;;;;5075699;28;20689;-71
2023/10/16 01:06:36;;;;;;;2.13;0.50;;;25.30;34.30;;;;;;5075888;28;20271;-67
2023/10/16 01:09:13;;;;;;;2.93;0.70;;;25.00;35.40;;;;;;5075483;28;20289;-74
2023/10/16 01:11:40;;;;;;;3.00;0.60;;;24.40;36.10;;;;;;5074412;28;20171;-71
2023/10/16 01:14:07;;;;;;;1.83;0.60;;;24.30;36.70;;;;;;5075644;28;20176;-70
2023/10/16 01:16:35;;;;;;;2.13;0.50;;;24.40;36.60;;;;;;5074707;28;20190;-70
2023/10/16 01:19:06;;;;;;;1.40;0.60;;;24.30;36.70;;;;;;5078171;28;20187;-70
2023/10/16 01:21:34;;;;;;;3.90;0.57;;;24.20;36.40;;;;;;5072010;28;20363;-71
2023/10/16 01:24:12;;;;;;;1.87;0.60;;;24.30;35.50;;;;;;5053576;28;20183;-70
2023/10/16 01:26:43;;;;;;;5.53;0.63;;;24.30;35.50;;;;;;5069289;28;20256;-69
2023/10/16 01:29:11;;;;;;;2.30;0.60;;;24.30;36.10;;;;;;5074642;28;20313;-68
2023/10/16 01:31:40;;;;;;;1.83;0.50;;;24.90;34.40;;;;;;5074941;28;20171;-72
2023/10/16 01:34:13;;;;;;;2.47;0.80;;;25.60;33.10;;;;;;5074194;28;20266;-69
2023/10/16 01:36:47;;;;;;;2.23;0.73;;;25.00;33.30;;;;;;5056520;28;20174;-70
2023/10/16 01:42:11;;;;;;;2.50;0.40;;;25.20;33.80;;;;;;5073365;28;20193;-72
2023/10/16 01:44:39;;;;;;;4.77;0.73;;;25.30;33.30;;;;;;5072396;28;20179;-69
2023/10/16 01:47:14;;;;;;;1.40;0.60;;;25.30;33.30;;;;;;5069073;28;20183;-73
2023/10/16 01:49:43;;;;;;;0.47;0.40;;;25.90;32.90;;;;;;5072650;28;20202;-73
2023/10/16 01:52:11;;;;;;;1.73;0.57;;;26.20;32.10;;;;;;5074598;28;20198;-68
2023/10/16 01:54:47;;;;;;;2.30;0.50;;;25.90;31.90;;;;;;5074117;28;20187;-72
2023/10/16 01:57:15;;;;;;;2.20;0.50;;;25.80;32.20;;;;;;5062503;28;20655;-69
2023/10/16 01:59:47;;;;;;;6.73;0.73;;;26.20;31.90;;;;;;5072073;28;20171;-69
2023/10/16 02:02:17;;;;;;;0.73;0.50;;;26.00;31.10;;;;;;5073696;28;20225;-69
2023/10/16 02:04:45;;;;;;;0.83;0.40;;;25.50;31.80;;;;;;5074935;28;20669;-67
2023/10/16 02:07:12;;;;;;;2.23;0.60;;;25.30;32.70;;;;;;5069846;28;20186;-71
2023/10/16 02:09:40;;;;;;;0.47;0.40;;;25.30;32.90;;;;;;5059475;28;20207;-73
2023/10/16 02:12:14;;;;;;;0.50;0.47;;;25.00;32.90;;;;;;5073453;28;20228;-71
2023/10/16 02:14:42;;;;;;;2.77;0.40;;;24.80;32.50;;;;;;5070801;28;20190;-70
2023/10/16 02:17:19;;;;;;;1.10;0.57;;;24.80;33.30;;;;;;5075016;28;20190;-68
2023/10/16 02:19:47;;;;;;;1.53;0.53;;;25.20;32.60;;;;;;5075700;28;20178;-68
2023/10/16 02:22:16;;;;;;;2.57;0.50;;;24.90;33.00;;;;;;5074634;28;20246;-73
2023/10/16 02:24:44;;;;;;;2.60;0.67;;;24.60;32.50;;;;;;5074547;28;20524;-68
2023/10/16 02:27:14;;;;;;;0.40;0.40;;;24.50;32.80;;;;;;5070386;28;20175;-69
2023/10/16 02:29:52;;;;;;;1.53;0.50;;;24.30;33.00;;;;;;5074336;28;20203;-76
2023/10/16 02:32:22;;;;;;;0.93;0.60;;;24.10;33.50;;;;;;5073369;28;20183;-69
2023/10/16 02:34:50;;;;;;;1.00;0.60;;;23.90;32.30;;;;;;5069043;28;20187;-69
2023/10/16 02:37:17;;;;;;;6.53;0.83;;;23.80;33.00;;;;;;5074109;28;20175;-74
2023/10/16 02:39:50;;;;;;;1.03;0.60;;;24.20;32.70;;;;;;5074249;28;20656;-70
2023/10/16 02:42:19;;;;;;;0.77;0.50;;;25.40;31.30;;;;;;5072039;28;20183;-70
2023/10/16 02:44:46;;;;;;;1.03;0.50;;;25.80;30.10;;;;;;5056917;28;20190;-73
2023/10/16 02:47:25;;;;;;;1.17;0.50;;;25.60;29.90;;;;;;5074285;28;20630;-69
2023/10/16 02:49:53;;;;;;;0.83;0.40;;;25.90;30.00;;;;;;5073390;28;20725;-73
2023/10/16 02:52:20;;;;;;;2.33;0.60;;;26.20;28.10;;;;;;5072959;28;20175;-70
2023/10/16 02:54:48;;;;;;;6.17;0.80;;;26.30;27.40;;;;;;5073729;28;20183;-75
2023/10/16 02:57:16;;;;;;;2.47;0.57;;;26.50;27.30;;;;;;5072280;28;20224;-71
2023/10/16 02:59:45;;;;;;;2.00;0.60;;;26.90;27.40;;;;;;5067507;28;20558;-72
2023/10/16 03:02:22;;;;;;;1.47;0.60;;;26.80;27.00;;;;;;5072610;28;20265;-72
2023/10/16 03:04:51;;;;;;;0.40;0.40;;;27.00;25.90;;;;;;5073112;28;20163;-70
2023/10/16 03:07:21;;;;;;;7.60;0.70;;;27.10;25.60;;;;;;5047437;28;20183;-69
2023/10/16 03:09:51;;;;;;;4.03;0.50;;;26.90;26.20;;;;;;5073138;28;20572;-72
2023/10/16 03:12:21;;;;;;;2.40;0.40;;;26.70;26.30;;;;;;5070855;28;20183;-71
2023/10/16 03:15:16;;;;;;;2.00;0.53;;;27.20;26.40;;;;;;5071104;28;20195;-74
2023/10/16 03:17:39;;;;;;;5.00;0.63;;;26.50;27.00;;;;;;5071657;28;20188;-68
2023/10/16 03:20:23;;;;;;;0.67;0.40;;;26.20;27.70;;;;;;5073533;28;20175;-71
2023/10/16 03:22:51;;;;;;;1.77;0.50;;;26.30;26.90;;;;;;5032704;28;20195;-76
2023/10/16 03:25:50;;;;;;;1.87;0.63;;;26.80;26.60;;;;;;5032291;28;20197;-75
2023/10/16 03:28:12;;;;;;;3.10;0.53;;;27.20;26.50;;;;;;5032709;28;20177;-75
2023/10/16 03:30:42;;;;;;;0.77;0.50;;;27.30;25.60;;;;;;5032683;28;20737;-72
2023/10/16 03:33:13;;;;;;;5.43;0.50;;;26.80;25.90;;;;;;5032496;28;20185;-74
2023/10/16 03:35:45;;;;;;;1.73;0.50;;;27.00;25.10;;;;;;5033074;28;20230;-71
2023/10/16 03:38:24;;;;;;;3.27;0.40;;;27.90;24.90;;;;;;5032912;28;20230;-74
2023/10/16 03:40:52;;;;;;;4.60;0.50;;;28.20;24.00;;;;;;5032371;28;20552;-74
2023/10/16 03:43:19;;;;;;;2.27;0.60;;;27.00;24.10;;;;;;5031349;28;20259;-69
2023/10/16 03:45:47;;;;;;;2.30;0.77;;;26.00;25.30;;;;;;5032774;28;20191;-73
2023/10/16 03:48:16;;;;;;;3.83;0.50;;;25.80;25.90;;;;;;5033126;28;20188;-72
2023/10/16 03:50:46;;;;;;;3.97;0.70;;;25.80;25.70;;;;;;5032800;28;20676;-75
2023/10/16 03:53:16;;;;;;;2.27;0.40;;;25.50;26.10;;;;;;5032266;28;20615;-73
2023/10/16 03:55:50;;;;;;;2.83;0.50;;;25.10;26.90;;;;;;5029734;28;20275;-70
2023/10/16 03:58:18;;;;;;;3.17;0.50;;;24.60;27.60;;;;;;5030503;28;20184;-75
2023/10/16 04:00:52;;;;;;;4.60;0.70;;;24.40;29.00;;;;;;5033216;28;20657;-68
2023/10/16 04:03:25;;;;;;;10.90;1.17;;;22.90;40.30;;;;;;5044986;28;20736;-68
2023/10/16 04:05:53;;;;;;;3.27;1.23;;;20.30;49.90;;;;;;5025732;28;20238;-70
2023/10/16 04:08:22;;;;;;;8.03;1.37;;;18.40;61.30;;;;;;5022503;28;20224;-65
2023/10/16 04:10:53;;;;;;;1.77;0.90;;;17.50;68.70;;;;;;5031056;28;20181;-68
2023/10/16 04:14:14;;;;;;;7.60;1.20;;;18.00;74.30;;;;;;5028970;28;20621;-69
2023/10/16 04:18:39;;;;;;;7.37;0.90;;;18.80;70.40;;;;;;5030433;28;20241;-67
2023/10/16 04:21:37;;;;;;;1.77;0.60;;;19.30;60.00;;;;;;5033515;28;20745;-63
2023/10/16 04:23:58;;;;;;;1.00;0.60;;;20.00;54.80;;;;;;5034458;28;20542;-67
2023/10/16 04:26:33;;;;;;;2.87;0.57;;;19.90;52.50;;;;;;5032690;28;20605;-67
2023/10/16 04:32:07;;;;;;;5.30;1.27;;;19.30;55.00;;;;;;5034971;28;20199;-71
2023/10/16 04:34:39;;;;;;;1.20;0.80;;;18.70;55.80;;;;;;5031704;28;20223;-66
2023/10/16 04:50:40;;;;;;;4.23;0.50;;;18.40;55.60;;;;;;5041157;28;20298;-64
2023/10/16 04:53:09;;;;;;;2.30;0.50;;;17.90;55.70;;;;;;5032310;28;20544;-67
2023/10/16 06:14:09;;;;;;;0.53;0.53;;;16.30;62.50;;;;;;5059084;28;20237;-69
2023/10/16 06:14:47;;;;;;;0.80;0.60;;;17.60;42.70;;;;;;5072873;28;20260;-70
2023/10/16 06:17:17;;;;;;;1.83;0.53;;;17.70;41.00;;;;;;5074108;28;20260;-69
2023/10/16 06:19:45;;;;;;;0.77;0.57;;;17.80;39.90;;;;;;5071427;28;20190;-74
2023/10/16 06:22:13;;;;;;;0.50;0.50;;;17.80;39.50;;;;;;5061263;28;20254;-67
2023/10/16 06:24:47;;;;;;;1.27;0.60;;;17.90;39.60;;;;;;5072723;28;20225;-67
2023/10/16 06:27:24;;;;;;;0.93;0.60;;;18.00;38.30;;;;;;5071435;28;20200;-71
2023/10/16 06:29:51;;;;;;;2.37;0.60;;;18.20;39.30;;;;;;5069327;28;20227;-70
2023/10/16 06:32:19;;;;;;;0.73;0.60;;;18.50;37.60;;;;;;5070590;28;20175;-66
2023/10/16 06:35:07;;;;;;;0.87;0.40;;;20.30;34.90;;;;;;5072019;28;20199;-67
2023/10/16 06:37:38;;;;;;;0.80;0.40;;;21.10;33.30;;;;;;5069016;28;20176;-70
2023/10/16 06:40:15;;;;;;;0.73;0.63;;;20.80;34.60;;;;;;5045983;28;20661;-65
2023/10/16 06:42:47;;;;;;;1.30;0.60;;;20.00;34.80;;;;;;5068653;28;20179;-64
2023/10/16 06:45:40;;;;;;;0.83;0.70;;;19.80;34.90;;;;;;5071419;28;20510;-72
2023/10/16 06:48:08;;;;;;;1.90;0.70;;;19.80;34.20;;;;;;5071615;28;20201;-67
2023/10/16 06:50:42;;;;;;;0.73;0.60;;;19.00;34.80;;;;;;5072620;28;20600;-65
2023/10/16 06:53:09;;;;;;;1.13;0.80;;;19.50;34.50;;;;;;5073129;28;20175;-68
2023/10/16 06:55:37;;;;;;;3.23;0.63;;;20.40;33.40;;;;;;5072517;28;20221;-68
2023/10/16 06:58:05;;;;;;;2.07;0.70;;;21.00;31.70;;;;;;5071647;28;20172;-67
2023/10/16 07:00:33;;;;;;;1.40;0.70;;;21.00;31.40;;;;;;5072108;28;20186;-70
2023/10/16 07:03:09;;;;;;;1.43;1.13;;;21.30;32.20;;;;;;5072987;28;20237;-68
2023/10/16 07:05:42;;;;;;;1.77;1.20;;;21.20;33.20;;;;;;5071741;28;20206;-67
2023/10/16 07:08:20;;;;;;;3.03;0.73;;;21.50;33.80;;;;;;5071295;28;20180;-66
2023/10/16 07:10:49;;;;;;;0.97;0.63;;;21.50;34.30;;;;;;5073101;28;20262;-68
2023/10/16 07:13:32;;;;;;;3.17;0.80;;;21.10;34.90;;;;;;5073404;28;20187;-67
2023/10/16 07:16:07;;;;;;;2.17;0.90;;;21.30;36.10;;;;;;5072013;28;20665;-66
2023/10/16 07:18:35;;;;;;;3.13;0.80;;;20.20;40.20;;;;;;5072360;28;20175;-67
2023/10/16 07:23:37;;;;;;;4.20;0.70;;;18.30;45.50;;;;;;5072724;28;20210;-68
2023/10/16 07:26:17;;;;;;;6.80;1.30;;;17.90;47.10;;;;;;5067418;28;20241;-67
2023/10/16 07:28:51;;;;;;;6.53;1.20;;;17.60;47.80;;;;;;5057325;28;20203;-70
2023/10/16 07:31:19;;;;;;;6.20;1.50;;;17.50;48.20;;;;;;5067351;28;20175;-67
2023/10/16 07:33:50;;;;;;;2.43;1.00;;;17.30;47.40;;;;;;5071985;28;20894;-64
2023/10/16 07:36:18;;;;;;;3.77;1.20;;;17.20;47.20;;;;;;5070856;28;20222;-68
2023/10/16 07:38:48;;;;;;;3.30;1.40;;;17.10;47.30;;;;;;5065072;28;20201;-64
2023/10/16 07:41:18;;;;;;;2.97;1.20;;;17.10;47.60;;;;;;5071078;28;20181;-66
2023/10/16 07:43:46;;;;;;;4.93;1.47;;;17.00;48.20;;;;;;5072463;28;20258;-67
2023/10/16 07:46:28;;;;;;;2.43;1.00;;;16.90;48.20;;;;;;5072759;28;20532;-64
2023/10/16 07:48:56;;;;;;;6.87;1.20;;;16.80;48.40;;;;;;5062573;28;20202;-66
2023/10/16 07:51:27;;;;;;;2.80;0.97;;;16.80;48.90;;;;;;5056519;28;20210;-68
2023/10/16 07:54:00;;;;;;;2.40;1.10;;;16.80;48.70;;;;;;5069320;28;20193;-74
2023/10/16 07:56:32;;;;;;;4.00;1.20;;;16.70;48.80;;;;;;5070279;28;20606;-68
2023/10/16 07:59:08;;;;;;;6.27;1.50;;;16.70;48.70;;;;;;5057433;28;20181;-69
2023/10/16 08:01:57;;;;;;;3.80;1.40;;;16.60;48.80;;;;;;5069890;28;20592;-66
2023/10/16 08:07:04;;;;;;;3.60;1.23;;;16.60;48.90;;;;;;5070806;28;20171;-66
2023/10/16 08:12:18;;;;;;;3.23;1.33;;;16.40;48.30;;;;;;5069313;28;20254;-74
2023/10/16 08:14:47;;;;;;;1.33;1.13;;;16.40;48.60;;;;;;5062011;28;20255;-68
2023/10/16 08:17:23;;;;;;;6.37;1.10;;;16.40;48.90;;;;;;5071567;28;20694;-66
2023/10/16 08:19:52;;;;;;;4.93;1.23;;;16.50;49.20;;;;;;5068368;28;20198;-69
2023/10/16 08:22:25;;;;;;;4.60;1.23;;;16.50;49.60;;;;;;5070873;28;20230;-70
2023/10/16 08:24:59;;;;;;;4.60;1.50;;;16.50;49.80;;;;;;5071403;28;20186;-68
2023/10/16 08:32:54;;;;;;;4.43;1.53;;;16.60;49.90;;;;;;5071848;28;20193;-67
2023/10/16 08:35:21;;;;;;;4.10;1.20;;;16.60;49.80;;;;;;5071749;28;20178;-72
2023/10/16 08:37:59;;;;;;;2.47;1.23;;;16.50;49.90;;;;;;5047908;28;20251;-67
2023/10/16 08:40:36;;;;;;;7.40;1.80;;;16.50;50.30;;;;;;5075468;28;20265;-69
2023/10/16 08:43:04;;;;;;;2.63;1.20;;;16.50;51.10;;;;;;5067298;28;20183;-71
2023/10/16 08:45:39;;;;;;;5.90;1.83;;;16.50;51.00;;;;;;5071064;28;20256;-76
2023/10/16 08:48:08;;;;;;;4.37;1.23;;;16.50;51.50;;;;;;5061480;28;20192;-73
2023/10/16 08:50:42;;;;;;;3.33;0.93;;;16.50;51.20;;;;;;5067022;28;20702;-68
2023/10/16 08:53:33;;;;;;;5.13;1.63;;;16.40;51.30;;;;;;5051580;28;20176;-74
2023/10/16 08:56:08;;;;;;;2.80;1.00;;;16.40;51.40;;;;;;5071303;28;20182;-68
2023/10/16 08:58:44;;;;;;;5.30;1.10;;;16.30;51.90;;;;;;5054646;28;20187;-73
2023/10/16 09:01:14;;;;;;;2.40;0.80;;;15.60;53.00;;;;;;5070179;28;20207;-73
2023/10/16 09:04:05;;;;;;;1.77;0.80;;;15.30;54.90;;;;;;5052552;28;20561;-66
2023/10/16 09:06:39;;;;;;;1.10;0.90;;;15.20;55.90;;;;;;5071020;28;20179;-80
2023/10/16 09:09:13;;;;;;;6.23;1.10;;;15.10;56.20;;;;;;5071249;28;20201;-69
2023/10/16 09:11:44;;;;;;;0.80;0.80;;;15.00;56.70;;;;;;5060215;28;20263;-74
2023/10/16 09:14:20;;;;;;;5.67;0.80;;;14.70;58.90;;;;;;5073845;28;20207;-70
2023/10/16 09:16:51;;;;;;;2.10;0.80;;;14.40;62.60;;;;;;5072812;28;20173;-70
2023/10/16 09:19:19;;;;;;;3.27;0.80;;;14.20;64.80;;;;;;5074899;28;20528;-70
2023/10/16 09:21:52;;;;;;;2.00;0.80;;;13.90;67.30;;;;;;5074230;28;20211;-73
2023/10/16 09:24:20;;;;;;;2.60;0.77;;;13.70;69.40;;;;;;5046885;28;20630;-71
2023/10/16 09:26:54;;;;;;;2.00;0.80;;;13.50;70.60;;;;;;5075060;28;20186;-68
2023/10/16 09:29:25;;;;;;;2.23;1.00;;;13.50;69.90;;;;;;5073252;28;20563;-67
2023/10/16 09:31:53;;;;;;;1.37;0.90;;;13.50;69.10;;;;;;5058455;28;20188;-70
2023/10/16 09:34:25;;;;;;;3.13;1.20;;;13.50;68.60;;;;;;5074974;28;20171;-68
2023/10/16 09:39:52;;;;;;;4.20;1.60;;;13.80;67.60;;;;;;5074077;28;20182;-74
2023/10/16 09:42:26;;;;;;;2.00;1.20;;;13.80;66.90;;;;;;5073189;28;20265;-73
2023/10/16 09:44:59;;;;;;;2.00;0.80;;;14.00;66.30;;;;;;5073420;28;20171;-70
2023/10/16 09:47:28;;;;;;;3.03;1.20;;;14.00;66.30;;;;;;5074382;28;20175;-69
2023/10/16 09:49:59;;;;;;;3.80;0.80;;;14.00;67.50;;;;;;5073324;28;20247;-69
2023/10/16 09:52:32;;;;;;;0.87;0.87;;;14.10;68.00;;;;;;5074231;28;20182;-68
2023/10/16 09:55:00;;;;;;;0.90;0.80;;;14.00;68.80;;;;;;5064786;28;20175;-69
2023/10/16 09:57:31;;;;;;;0.70;0.70;;;14.00;70.10;;;;;;5072057;28;20215;-68
2023/10/16 10:02:46;;;;;;;1.57;1.00;;;13.90;70.80;;;;;;5074014;28;20225;-72
2023/10/16 10:05:21;;;;;;;0.90;0.90;;;13.90;71.70;;;;;;5058105;28;20720;-69
2023/10/16 10:07:49;;;;;;;0.80;0.80;;;13.80;71.20;;;;;;5073992;28;20628;-70
2023/10/16 10:13:08;;;;;;;0.90;0.90;;;13.80;70.10;;;;;;5063129;28;20623;-68
2023/10/16 10:15:44;;;;;;;1.10;0.90;;;13.80;70.60;;;;;;5072573;28;20187;-70
2023/10/16 10:18:32;;;;;;;1.10;0.80;;;13.80;70.10;;;;;;5066198;28;20198;-67
2023/10/16 10:21:02;;;;;;;0.80;0.80;;;13.70;70.50;;;;;;5060760;28;20716;-70
2023/10/16 10:23:32;;;;;;;0.80;0.80;;;13.70;69.80;;;;;;5073089;28;20587;-67
2023/10/16 10:26:07;;;;;;;0.93;0.80;;;13.70;69.90;;;;;;5072481;28;20183;-68
2023/10/16 10:28:40;;;;;;;1.00;0.90;;;13.70;69.10;;;;;;5073208;28;20178;-67
2023/10/16 10:31:11;;;;;;;0.90;0.70;;;13.70;70.00;;;;;;5073846;28;20184;-67
2023/10/16 10:33:57;;;;;;;1.33;0.93;;;13.80;70.80;;;;;;5072602;28;20190;-68
2023/10/16 10:36:38;;;;;;;1.23;0.90;;;13.80;69.70;;;;;;5073097;28;20187;-68
2023/10/16 10:39:38;;;;;;;1.23;1.00;;;13.80;70.20;;;;;;5073505;28;20187;-68
2023/10/16 10:42:10;;;;;;;0.70;0.70;;;13.80;70.30;;;;;;5071920;28;20175;-72
2023/10/16 10:44:45;;;;;;;1.03;0.90;;;13.80;70.00;;;;;;5066911;28;20240;-67
2023/10/16 10:47:30;;;;;;;1.27;0.87;;;13.80;69.70;;;;;;5072168;28;20185;-70
2023/10/16 10:50:12;;;;;;;0.97;0.80;;;13.90;70.10;;;;;;5072740;28;20214;-70
2023/10/16 10:52:40;;;;;;;1.60;1.10;;;13.90;69.50;;;;;;5069876;28;20184;-70
2023/10/16 10:55:18;;;;;;;1.73;1.10;;;13.90;69.50;;;;;;5071904;28;20270;-68
2023/10/16 10:57:55;;;;;;;1.20;0.90;;;13.90;69.10;;;;;;5072666;28;20213;-67
2023/10/16 11:05:31;;;;;;;2.60;1.10;;;13.70;69.20;;;;;;5071832;28;20219;-69
2023/10/16 11:10:48;;;;;;;2.10;1.13;;;13.60;69.90;;;;;;5071933;28;20203;-70
2023/10/16 11:13:18;;;;;;;1.90;1.00;;;13.60;70.40;;;;;;5070288;28;20490;-67
2023/10/16 11:15:52;;;;;;;2.30;1.00;;;13.60;70.40;;;;;;5054519;28;20179;-69
2023/10/16 11:18:22;;;;;;;1.83;0.90;;;13.50;70.30;;;;;;5072299;28;20175;-66
2023/10/16 11:21:04;;;;;;;1.90;1.10;;;13.40;70.10;;;;;;5071867;28;20282;-70
2023/10/16 11:23:32;;;;;;;2.63;1.40;;;13.40;70.70;;;;;;5072369;28;20586;-67
2023/10/16 11:26:00;;;;;;;1.00;0.90;;;13.40;70.60;;;;;;5072363;28;20187;-67
2023/10/16 11:28:31;;;;;;;1.33;0.90;;;13.30;70.80;;;;;;5071777;28;20629;-71
2023/10/16 11:31:00;;;;;;;1.53;1.20;;;13.20;70.70;;;;;;5071550;28;20195;-67
2023/10/16 11:33:46;;;;;;;0.87;0.87;;;13.20;71.20;;;;;;5072076;28;20266;-69
2023/10/16 11:36:14;;;;;;;1.10;1.00;;;13.10;71.70;;;;;;5072032;28;20183;-66
2023/10/16 11:38:44;;;;;;;1.97;1.00;;;13.00;71.50;;;;;;5072431;28;20179;-65
2023/10/16 11:41:12;;;;;;;0.90;0.90;;;12.90;72.20;;;;;;5072071;28;20181;-70
2023/10/16 11:44:08;;;;;;;2.90;1.00;;;12.90;72.60;;;;;;5071552;28;20180;-68
2023/10/16 11:46:38;;;;;;;2.70;1.10;;;12.90;73.10;;;;;;5071374;28;20181;-71
2023/10/16 11:51:49;;;;;;;1.97;1.30;;;12.90;73.40;;;;;;5058093;28;20457;-70
2023/10/16 11:54:25;;;;;;;1.50;1.23;;;12.80;73.60;;;;;;5070898;28;20175;-68
2023/10/16 11:56:55;;;;;;;2.77;1.20;;;12.80;73.90;;;;;;5061674;28;20187;-68
2023/10/16 11:59:25;;;;;;;1.30;1.10;;;12.70;73.90;;;;;;5067250;28;20188;-66
2023/10/16 12:01:53;;;;;;;2.43;1.47;;;12.70;74.40;;;;;;5064437;28;20221;-67
2023/10/16 12:04:22;;;;;;;2.90;1.50;;;12.60;74.50;;;;;;5053927;28;20183;-67
2023/10/16 12:06:51;;;;;;;1.73;1.33;;;12.60;75.10;;;;;;5069538;28;20187;-67
2023/10/16 12:09:22;;;;;;;2.73;1.07;;;12.60;75.00;;;;;;5053516;28;20701;-67
2023/10/16 12:11:51;;;;;;;1.17;1.07;;;12.50;75.20;;;;;;5071352;28;20179;-68
2023/10/16 12:14:19;;;;;;;1.80;1.37;;;12.50;75.30;;;;;;5071655;28;20649;-72
2023/10/16 12:16:48;;;;;;;1.50;1.10;;;12.50;75.60;;;;;;5071900;28;20183;-66
2023/10/16 12:19:17;;;;;;;1.40;1.30;;;12.50;75.70;;;;;;5071719;28;20194;-69
2023/10/16 12:21:50;;;;;;;1.83;1.13;;;12.40;75.70;;;;;;5071633;28;20365;-67
2023/10/16 12:24:17;;;;;;;2.23;1.40;;;12.50;75.70;;;;;;5071717;28;20182;-66
2023/10/16 12:26:46;;;;;;;1.93;1.20;;;12.40;75.50;;;;;;5071758;28;20549;-66
2023/10/16 12:29:13;;;;;;;2.57;1.60;;;12.40;75.60;;;;;;5058188;28;20297;-66
2023/10/16 12:31:41;;;;;;;1.23;1.10;;;12.50;75.50;;;;;;5071432;28;20175;-67
2023/10/16 12:34:11;;;;;;;2.50;1.20;;;12.60;75.40;;;;;;5070820;28;20180;-68
2023/10/16 12:36:40;;;;;;;1.33;1.20;;;12.50;75.10;;;;;;5071776;28;20642;-67
2023/10/16 12:39:16;;;;;;;1.97;1.20;;;12.50;75.10;;;;;;5070656;28;20183;-67
2023/10/16 12:41:46;;;;;;;1.20;1.07;;;12.40;74.80;;;;;;5071155;28;20278;-66
2023/10/16 12:44:13;;;;;;;1.33;1.13;;;12.50;74.90;;;;;;5069798;28;20507;-68
2023/10/16 12:46:43;;;;;;;1.10;1.00;;;12.40;74.60;;;;;;5074220;28;20190;-69
2023/10/16 12:49:11;;;;;;;1.00;1.00;;;12.40;74.20;;;;;;5062106;28;20255;-67
2023/10/16 12:51:38;;;;;;;1.40;1.20;;;12.40;73.90;;;;;;5075229;28;20610;-66
2023/10/16 12:54:06;;;;;;;1.33;1.00;;;12.40;73.20;;;;;;5074854;28;20180;-67
2023/10/16 12:56:35;;;;;;;0.90;0.90;;;12.40;73.00;;;;;;5074350;28;20245;-67
2023/10/16 12:59:03;;;;;;;1.47;1.00;;;12.40;72.10;;;;;;5075350;28;20568;-69
2023/10/16 13:01:31;;;;;;;1.00;1.00;;;12.30;71.60;;;;;;5073042;28;20183;-68
2023/10/16 13:04:01;;;;;;;1.67;1.20;;;12.30;71.40;;;;;;5074666;28;20182;-67
2023/10/16 13:06:35;;;;;;;0.90;0.90;;;12.40;71.00;;;;;;5075234;28;20202;-70
2023/10/16 13:09:03;;;;;;;1.00;0.90;;;12.30;70.60;;;;;;5074122;28;20207;-68
2023/10/16 13:11:30;;;;;;;0.93;0.93;;;12.40;70.10;;;;;;5074157;28;20190;-68
2023/10/16 13:14:01;;;;;;;2.70;1.00;;;12.50;69.00;;;;;;5056791;28;20183;-68
2023/10/16 13:16:30;;;;;;;1.27;0.83;;;12.40;66.70;;;;;;5063745;28;20175;-68
2023/10/16 13:18:59;;;;;;;0.90;0.90;;;12.50;66.10;;;;;;5074869;28;20179;-67
2023/10/16 13:21:33;;;;;;;1.57;0.90;;;12.50;65.70;;;;;;5074576;28;20622;-68
2023/10/16 13:24:16;;;;;;;2.40;1.10;;;12.50;66.20;;;;;;5057693;28;20175;-69
2023/10/16 13:26:44;;;;;;;2.53;1.10;;;12.30;67.00;;;;;;5063113;28;20175;-67
2023/10/16 13:29:13;;;;;;;0.80;0.80;;;12.30;67.60;;;;;;5056471;28;20194;-72
2023/10/16 13:31:45;;;;;;;1.43;0.90;;;12.30;67.30;;;;;;5074594;28;20210;-66
2023/10/16 13:34:17;;;;;;;3.80;1.23;;;12.30;67.10;;;;;;5074422;28;20233;-68
2023/10/16 13:37:01;;;;;;;2.23;0.97;;;12.20;67.00;;;;;;5074772;28;20175;-66
2023/10/16 13:39:33;;;;;;;1.70;0.90;;;12.20;66.80;;;;;;5075144;28;20257;-68
2023/10/16 13:42:01;;;;;;;1.43;1.03;;;12.20;66.80;;;;;;5074685;28;20633;-67
2023/10/16 13:44:32;;;;;;;1.20;1.10;;;12.20;67.00;;;;;;5074578;28;20586;-68
2023/10/16 13:47:01;;;;;;;3.63;1.30;;;12.10;66.80;;;;;;5074371;28;20249;-76
2023/10/16 13:49:29;;;;;;;1.50;1.00;;;12.10;66.60;;;;;;5074537;28;20206;-72
2023/10/16 13:51:58;;;;;;;1.53;1.13;;;12.10;65.70;;;;;;5072614;28;20186;-73
2023/10/16 13:54:26;;;;;;;2.87;1.40;;;12.00;65.70;;;;;;5073150;28;20244;-68
2023/10/16 13:56:53;;;;;;;4.57;1.23;;;12.00;65.30;;;;;;5072886;28;20180;-72
2023/10/16 13:59:20;;;;;;;1.10;1.10;;;12.00;64.80;;;;;;5074257;28;20198;-67
2023/10/16 14:01:47;;;;;;;2.40;1.20;;;12.00;64.50;;;;;;5074210;28;20190;-70
2023/10/16 14:04:16;;;;;;;1.80;1.20;;;12.00;64.70;;;;;;5074155;28;20175;-71
2023/10/16 14:06:51;;;;;;;1.37;1.27;;;11.90;64.20;;;;;;5073597;28;20194;-70
2023/10/16 14:09:32;;;;;;;1.30;0.93;;;11.90;63.60;;;;;;5072923;28;20202;-72
2023/10/16 14:12:01;;;;;;;4.03;1.30;;;11.90;63.70;;;;;;5070277;28;20199;-66
2023/10/16 14:14:33;;;;;;;1.43;1.00;;;11.80;63.30;;;;;;5072101;28;20206;-66
2023/10/16 14:17:03;;;;;;;2.17;1.30;;;11.70;63.60;;;;;;5073122;28;20179;-65
2023/10/16 14:19:32;;;;;;;1.43;1.00;;;11.70;63.40;;;;;;5067575;28;20179;-72
2023/10/16 14:21:59;;;;;;;4.43;1.20;;;11.70;63.80;;;;;;5071169;28;20288;-65
2023/10/16 14:24:27;;;;;;;2.07;1.20;;;11.60;63.80;;;;;;5073811;28;20248;-66
2023/10/16 14:26:59;;;;;;;2.60;1.20;;;11.50;64.30;;;;;;5073887;28;20270;-66
2023/10/16 14:29:27;;;;;;;3.10;1.30;;;11.50;64.40;;;;;;5071444;28;20257;-65
2023/10/16 14:31:56;;;;;;;0.90;0.90;;;11.30;64.70;;;;;;5058738;28;20195;-67
2023/10/16 14:34:25;;;;;;;2.43;1.23;;;11.40;64.60;;;;;;5073438;28;20175;-65
2023/10/16 14:36:54;;;;;;;2.17;1.20;;;11.30;64.90;;;;;;5070585;28;20510;-70
2023/10/16 14:39:31;;;;;;;1.70;1.00;;;11.20;65.10;;;;;;5060093;28;20188;-66
2023/10/16 14:42:01;;;;;;;2.93;1.37;;;11.20;65.80;;;;;;5064122;28;20191;-67
2023/10/16 14:44:29;;;;;;;4.00;1.20;;;11.30;66.20;;;;;;5059255;28;20723;-64
2023/10/16 14:46:57;;;;;;;1.30;1.20;;;11.20;66.90;;;;;;5068556;28;20306;-65
2023/10/16 14:49:27;;;;;;;1.10;0.97;;;11.20;67.50;;;;;;5072446;28;20275;-66
2023/10/16 14:51:56;;;;;;;2.00;1.03;;;11.20;67.80;;;;;;5072465;28;20178;-66
2023/10/16 14:54:23;;;;;;;1.70;1.20;;;11.20;68.10;;;;;;5073031;28;20705;-66
2023/10/16 14:56:52;;;;;;;2.67;1.40;;;11.20;68.20;;;;;;5072866;28;20207;-63
2023/10/16 14:59:35;;;;;;;1.20;1.10;;;11.20;68.40;;;;;;5072562;28;20525;-67
2023/10/16 15:02:02;;;;;;;1.97;1.27;;;11.10;68.00;;;;;;5047666;28;20187;-66
2023/10/16 15:04:30;;;;;;;2.33;1.20;;;11.00;68.00;;;;;;5055542;28;20262;-64
2023/10/16 15:07:07;;;;;;;1.30;1.20;;;11.10;68.20;;;;;;5066591;28;20540;-66
2023/10/16 15:09:35;;;;;;;1.60;1.30;;;11.10;68.30;;;;;;5073035;28;20237;-65
2023/10/16 15:12:03;;;;;;;1.20;1.10;;;11.00;68.00;;;;;;5072074;28;20183;-65
2023/10/16 15:14:31;;;;;;;1.73;1.20;;;11.00;68.00;;;;;;5071016;28;20206;-66
2023/10/16 15:16:58;;;;;;;3.47;1.20;;;11.00;67.90;;;;;;5071457;28;20180;-65
2023/10/16 15:19:28;;;;;;;1.57;1.20;;;11.00;67.80;;;;;;5071747;28;20679;-65
2023/10/16 15:21:58;;;;;;;1.20;1.10;;;10.90;67.80;;;;;;5071368;28;20656;-65